createdAt,value
2022-11-26T00:00:32.326Z,6.40
2022-11-26T00:03:00.691Z,6.30
2022-11-26T00:05:32.341Z,6.40
2022-11-26T00:08:04.414Z,6.50
2022-11-26T00:10:36.571Z,6.50
2022-11-26T00:13:07.269Z,6.50
2022-11-26T00:15:35.488Z,6.50
2022-11-26T00:18:03.712Z,6.50
2022-11-26T00:20:32.969Z,6.50
2022-11-26T00:23:04.339Z,6.40
2022-11-26T00:25:43.419Z,6.30
2022-11-26T00:28:29.789Z,6.30
2022-11-26T00:31:01.480Z,6.20
2022-11-26T00:33:30.347Z,6.20
2022-11-26T00:36:02.576Z,6.10
2022-11-26T00:38:32.672Z,6.00
2022-11-26T00:41:01.060Z,5.90
2022-11-26T00:43:29.215Z,5.90
2022-11-26T00:45:57.504Z,5.80
2022-11-26T00:48:25.564Z,5.80
2022-11-26T00:50:53.652Z,5.80
2022-11-26T00:53:26.264Z,5.80
2022-11-26T00:55:55.834Z,5.80
2022-11-26T00:58:26.739Z,5.70
2022-11-26T01:00:55.554Z,5.70
2022-11-26T01:03:23.964Z,5.70
2022-11-26T01:05:52.915Z,5.80
2022-11-26T01:08:29.589Z,5.80
2022-11-26T01:10:59.548Z,5.90
2022-11-26T01:13:28.295Z,5.80
2022-11-26T01:15:57.303Z,5.80
2022-11-26T01:18:25.913Z,5.80
2022-11-26T01:20:54.213Z,5.70
2022-11-26T01:23:22.745Z,5.70
2022-11-26T01:25:50.863Z,5.70
2022-11-26T01:28:20.695Z,5.60
2022-11-26T01:30:49.278Z,5.70
2022-11-26T01:33:17.322Z,5.70
2022-11-26T01:35:45.406Z,5.70
2022-11-26T01:38:15.189Z,5.70
2022-11-26T01:41:04.620Z,5.70
2022-11-26T01:43:41.069Z,5.70
2022-11-26T01:46:16.569Z,5.70
2022-11-26T01:48:45.445Z,5.80
2022-11-26T01:51:14.333Z,5.80
2022-11-26T01:53:48.902Z,5.80
2022-11-26T01:56:27.124Z,5.90
2022-11-26T01:59:02.800Z,5.90
2022-11-26T02:01:31.044Z,5.90
2022-11-26T02:04:08.699Z,5.90
2022-11-26T02:06:37.244Z,6.00
2022-11-26T02:09:08.629Z,5.90
2022-11-26T02:11:37.421Z,5.90
2022-11-26T02:14:11.625Z,5.90
2022-11-26T02:17:09.866Z,5.80
2022-11-26T02:20:14.401Z,5.80
2022-11-26T02:23:16.201Z,5.80
2022-11-26T02:26:13.816Z,5.70
2022-11-26T02:28:59.782Z,5.70
2022-11-26T02:31:36.784Z,5.80
2022-11-26T02:34:14.680Z,5.70
2022-11-26T02:36:48.739Z,5.70
2022-11-26T02:39:20.589Z,5.80
2022-11-26T02:41:51.816Z,5.70
2022-11-26T02:44:22.938Z,5.60
2022-11-26T02:46:58.974Z,5.60
2022-11-26T02:49:28.329Z,5.60
2022-11-26T02:52:01.292Z,5.60
2022-11-26T02:54:30.835Z,5.70
2022-11-26T02:57:01.131Z,5.70
2022-11-26T02:59:29.465Z,5.60
2022-11-26T03:02:01.964Z,5.60
2022-11-26T03:04:35.926Z,5.70
2022-11-26T03:07:06.563Z,5.60
2022-11-26T03:09:41.628Z,5.60
2022-11-26T03:12:10.136Z,5.60
2022-11-26T03:14:38.644Z,5.50
2022-11-26T03:17:08.367Z,5.50
2022-11-26T03:19:36.625Z,5.50
2022-11-26T03:22:05.423Z,5.50
2022-11-26T03:24:33.901Z,5.40
2022-11-26T03:27:01.959Z,5.40
2022-11-26T03:29:30.071Z,5.50
2022-11-26T03:31:58.432Z,5.50
2022-11-26T03:34:27.934Z,5.50
2022-11-26T03:36:56.020Z,5.60
2022-11-26T03:39:24.275Z,5.60
2022-11-26T03:41:53.633Z,5.60
2022-11-26T03:44:21.927Z,5.50
2022-11-26T03:46:50.146Z,5.60
2022-11-26T03:49:18.837Z,5.50
2022-11-26T03:51:48.302Z,5.50
2022-11-26T03:54:16.657Z,5.50
2022-11-26T03:56:44.776Z,5.50
2022-11-26T03:59:12.928Z,5.50
2022-11-26T04:01:41.213Z,5.50
2022-11-26T04:04:09.540Z,5.40
2022-11-26T04:06:37.609Z,5.50
2022-11-26T04:09:07.670Z,5.60
2022-11-26T04:11:35.893Z,5.50
2022-11-26T04:14:04.696Z,5.50
2022-11-26T04:16:32.853Z,5.50
2022-11-26T04:19:00.960Z,5.50
2022-11-26T04:21:29.083Z,5.50
2022-11-26T04:23:57.377Z,5.50
2022-11-26T04:26:27.132Z,5.40
2022-11-26T04:28:55.196Z,5.40
2022-11-26T04:31:23.279Z,5.50
2022-11-26T04:33:51.417Z,5.40
2022-11-26T04:36:19.507Z,5.40
2022-11-26T04:38:47.888Z,5.40
2022-11-26T04:41:16.420Z,5.40
2022-11-26T04:43:46.399Z,5.40
2022-11-26T04:46:14.569Z,5.40
2022-11-26T04:48:42.744Z,5.30
2022-11-26T04:51:11.297Z,5.30
2022-11-26T04:53:39.669Z,5.30
2022-11-26T04:56:08.387Z,5.30
2022-11-26T04:58:36.511Z,5.20
2022-11-26T05:01:06.424Z,5.20
2022-11-26T05:03:36.329Z,5.20
2022-11-26T05:06:04.846Z,5.20
2022-11-26T05:08:33.085Z,5.10
2022-11-26T05:11:03.262Z,5.10
2022-11-26T05:13:32.035Z,5.10
2022-11-26T05:16:00.058Z,5.20
2022-11-26T05:18:30.295Z,5.10
2022-11-26T05:20:58.328Z,5.20
2022-11-26T05:23:27.024Z,5.20
2022-11-26T05:25:55.102Z,5.20
2022-11-26T05:28:23.130Z,5.20
2022-11-26T05:30:51.303Z,5.20
2022-11-26T05:33:19.582Z,5.20
2022-11-26T05:35:49.402Z,5.20
2022-11-26T05:38:17.469Z,5.10
2022-11-26T05:40:45.725Z,5.10
2022-11-26T05:43:14.816Z,5.10
2022-11-26T05:45:43.638Z,5.00
2022-11-26T05:48:11.896Z,5.00
2022-11-26T05:50:40.045Z,5.00
2022-11-26T05:53:09.711Z,5.00
2022-11-26T05:55:38.117Z,5.00
2022-11-26T05:58:06.215Z,5.00
2022-11-26T06:00:34.466Z,5.00
2022-11-26T06:03:02.640Z,4.90
2022-11-26T06:05:32.872Z,4.80
2022-11-26T06:08:00.968Z,4.80
2022-11-26T06:10:30.727Z,4.90
2022-11-26T06:12:58.862Z,5.00
2022-11-26T06:15:27.202Z,4.90
2022-11-26T06:17:55.600Z,5.00
2022-11-26T06:20:23.654Z,5.00
2022-11-26T06:22:51.812Z,4.90
2022-11-26T06:25:20.007Z,4.80
2022-11-26T06:27:49.489Z,4.80
2022-11-26T06:30:17.561Z,4.60
2022-11-26T06:32:45.567Z,4.30
2022-11-26T06:35:13.823Z,4.20
2022-11-26T06:37:42.460Z,4.10
2022-11-26T06:40:16.971Z,3.90
2022-11-26T06:42:50.955Z,3.80
2022-11-26T06:45:19.419Z,3.80
2022-11-26T06:47:48.331Z,3.90
2022-11-26T06:50:16.870Z,4.10
2022-11-26T06:52:44.947Z,4.30
2022-11-26T06:55:13.550Z,4.40
2022-11-26T06:57:41.585Z,4.40
2022-11-26T07:00:13.065Z,4.40
2022-11-26T07:02:43.565Z,4.40
2022-11-26T07:05:11.942Z,4.30
2022-11-26T07:07:40.453Z,4.30
2022-11-26T07:10:09.638Z,4.30
2022-11-26T07:12:37.713Z,4.30
2022-11-26T07:15:06.896Z,4.30
2022-11-26T07:17:36.433Z,4.40
2022-11-26T07:20:05.209Z,4.50
2022-11-26T07:22:35.407Z,4.60
2022-11-26T07:25:06.050Z,4.60
2022-11-26T07:27:36.191Z,4.60
2022-11-26T07:30:04.528Z,4.70
2022-11-26T07:32:32.613Z,4.70
2022-11-26T07:35:07.375Z,4.90
2022-11-26T07:37:36.126Z,4.90
2022-11-26T07:40:05.361Z,5.00
2022-11-26T07:42:33.954Z,4.90
2022-11-26T07:45:02.000Z,5.00
2022-11-26T07:47:32.420Z,5.10
2022-11-26T07:50:00.799Z,5.20
2022-11-26T07:52:30.393Z,5.10
2022-11-26T07:54:58.494Z,5.30
2022-11-26T07:57:26.599Z,5.40
2022-11-26T07:59:54.858Z,5.60
2022-11-26T08:02:23.126Z,5.70
2022-11-26T08:04:51.426Z,5.90
2022-11-26T08:07:24.654Z,5.90
2022-11-26T08:09:57.116Z,6.00
2022-11-26T08:12:25.448Z,5.90
2022-11-26T08:14:53.771Z,6.00
2022-11-26T08:17:21.872Z,6.00
2022-11-26T08:19:49.967Z,6.00
2022-11-26T08:22:18.070Z,6.00
2022-11-26T08:24:46.144Z,6.00
2022-11-26T08:27:15.547Z,6.20
2022-11-26T08:29:44.707Z,6.60
2022-11-26T08:32:12.745Z,6.70
2022-11-26T08:34:41.460Z,6.50
2022-11-26T08:37:09.808Z,6.60
2022-11-26T08:39:38.324Z,6.90
2022-11-26T08:42:06.520Z,7.70
2022-11-26T08:44:36.415Z,8.20
2022-11-26T08:47:04.796Z,8.40
2022-11-26T08:49:33.436Z,8.30
2022-11-26T08:52:08.233Z,8.00
2022-11-26T08:54:38.752Z,8.10
2022-11-26T08:57:10.244Z,8.00
2022-11-26T08:59:39.961Z,7.60
2022-11-26T09:02:09.952Z,7.40
2022-11-26T09:04:38.547Z,7.20
2022-11-26T09:07:06.900Z,7.40
2022-11-26T09:09:35.247Z,8.00
2022-11-26T09:12:03.632Z,8.40
2022-11-26T09:14:37.448Z,8.40
2022-11-26T09:17:07.807Z,7.80
2022-11-26T09:19:35.830Z,7.50
2022-11-26T09:22:04.446Z,7.90
2022-11-26T09:24:32.512Z,8.20
2022-11-26T09:27:07.362Z,8.00
2022-11-26T09:29:36.034Z,8.00
2022-11-26T09:34:54.020Z,8.40
2022-11-26T09:37:22.267Z,8.50
2022-11-26T09:39:51.699Z,8.20
2022-11-26T09:42:29.187Z,8.20
2022-11-26T09:45:13.480Z,8.00
2022-11-26T09:47:43.752Z,7.90
2022-11-26T09:50:31.688Z,7.80
2022-11-26T09:53:03.316Z,7.80
2022-11-26T09:55:33.415Z,7.90
2022-11-26T09:58:12.330Z,7.80
2022-11-26T10:00:44.918Z,7.70
2022-11-26T10:03:15.855Z,7.60
2022-11-26T10:06:02.557Z,7.60
2022-11-26T10:08:57.846Z,7.50
2022-11-26T10:11:34.947Z,7.60
2022-11-26T10:14:14.403Z,7.60
2022-11-26T10:16:46.971Z,7.70
2022-11-26T10:19:24.515Z,7.70
2022-11-26T10:21:59.390Z,7.70
2022-11-26T10:24:32.942Z,7.70
2022-11-26T10:27:06.305Z,7.60
2022-11-26T10:29:39.249Z,7.60
2022-11-26T10:32:15.504Z,7.70
2022-11-26T10:34:50.578Z,7.60
2022-11-26T10:37:21.568Z,7.80
2022-11-26T10:39:52.900Z,7.70
2022-11-26T10:42:25.517Z,7.80
2022-11-26T10:44:54.484Z,7.80
2022-11-26T10:47:28.434Z,7.90
2022-11-26T10:50:39.645Z,8.00
2022-11-26T10:53:07.336Z,8.10
2022-11-26T10:55:39.379Z,8.10
2022-11-26T10:58:20.762Z,8.20
2022-11-26T11:00:58.064Z,8.30
2022-11-26T11:03:59.699Z,8.30
2022-11-26T11:06:38.429Z,8.40
2022-11-26T11:10:07.441Z,8.50
2022-11-26T11:12:38.436Z,8.60
2022-11-26T11:15:22.815Z,8.70
2022-11-26T11:17:57.892Z,8.70
2022-11-26T11:20:34.468Z,8.70
2022-11-26T11:23:06.092Z,8.80
2022-11-26T11:25:36.228Z,8.80
2022-11-26T11:28:17.907Z,8.90
2022-11-26T11:30:46.992Z,8.90
2022-11-26T11:33:24.260Z,8.90
2022-11-26T11:36:21.334Z,8.90
2022-11-26T11:38:52.284Z,8.90
2022-11-26T11:41:29.059Z,8.90
2022-11-26T11:44:05.781Z,8.80
2022-11-26T11:46:56.500Z,8.80
2022-11-26T11:49:37.040Z,8.80
2022-11-26T11:52:17.049Z,8.80
2022-11-26T11:54:56.767Z,8.90
2022-11-26T11:57:41.366Z,8.80
2022-11-26T12:00:16.039Z,9.00
2022-11-26T12:03:16.758Z,9.00
2022-11-26T12:05:56.424Z,9.10
2022-11-26T12:08:45.027Z,9.20
2022-11-26T12:11:31.244Z,9.40
2022-11-26T12:14:03.704Z,9.40
2022-11-26T12:16:38.121Z,9.40
2022-11-26T12:19:12.737Z,9.40
2022-11-26T12:21:46.217Z,9.50
2022-11-26T12:24:21.456Z,9.50
2022-11-26T12:26:53.653Z,9.60
2022-11-26T12:29:30.377Z,10.20
2022-11-26T12:32:06.903Z,10.50
2022-11-26T12:34:39.198Z,10.40
2022-11-26T12:37:17.230Z,10.00
2022-11-26T12:39:53.893Z,9.90
2022-11-26T12:42:29.267Z,9.90
2022-11-26T12:45:07.430Z,9.80
2022-11-26T12:47:42.652Z,9.80
2022-11-26T12:50:19.477Z,9.80
2022-11-26T12:52:54.879Z,9.80
2022-11-26T12:55:27.784Z,9.80
2022-11-26T12:58:02.197Z,9.80
2022-11-26T13:00:35.905Z,9.90
2022-11-26T13:03:08.080Z,9.90
2022-11-26T13:05:51.231Z,10.00
2022-11-26T13:08:32.527Z,10.20
2022-11-26T13:11:18.296Z,10.50
2022-11-26T13:13:53.549Z,10.90
2022-11-26T13:16:27.057Z,11.30
2022-11-26T13:19:06.612Z,11.70
2022-11-26T13:21:52.677Z,11.70
2022-11-26T13:24:50.516Z,11.70
2022-11-26T13:27:48.312Z,11.50
2022-11-26T13:30:22.355Z,11.20
2022-11-26T13:33:21.540Z,11.10
2022-11-26T13:36:24.189Z,10.90
2022-11-26T13:39:06.189Z,10.70
2022-11-26T13:42:10.537Z,10.50
2022-11-26T13:45:14.844Z,10.30
2022-11-26T13:47:47.704Z,10.20
2022-11-26T13:50:23.343Z,10.10
2022-11-26T13:52:59.998Z,10.00
2022-11-26T13:55:32.768Z,9.90
2022-11-26T13:58:05.070Z,9.80
2022-11-26T14:00:35.745Z,9.80
2022-11-26T14:03:05.224Z,9.80
2022-11-26T14:06:10.427Z,9.80
2022-11-26T14:08:43.264Z,9.70
2022-11-26T14:11:12.466Z,9.70
2022-11-26T14:13:41.046Z,9.70
2022-11-26T14:16:10.383Z,9.70
2022-11-26T14:19:00.491Z,9.60
2022-11-26T14:21:30.648Z,9.60
2022-11-26T14:24:01.668Z,9.60
2022-11-26T14:26:34.189Z,9.50
2022-11-26T14:29:14.312Z,9.50
2022-11-26T14:31:49.731Z,9.40
2022-11-26T14:34:25.587Z,9.40
2022-11-26T14:36:56.587Z,9.40
2022-11-26T14:39:26.878Z,9.40
2022-11-26T14:42:00.498Z,9.30
2022-11-26T14:44:34.650Z,9.40
2022-11-26T14:47:11.762Z,9.30
2022-11-26T14:49:42.726Z,9.30
2022-11-26T14:52:20.737Z,9.40
2022-11-26T14:54:53.337Z,9.50
2022-11-26T14:57:27.256Z,9.50
2022-11-26T15:00:03.950Z,9.50
2022-11-26T15:02:32.950Z,9.40
2022-11-26T15:05:04.761Z,9.50
2022-11-26T15:07:33.114Z,9.50
2022-11-26T15:10:05.618Z,9.40
2022-11-26T15:12:36.296Z,9.40
2022-11-26T15:15:05.778Z,9.40
2022-11-26T15:17:35.579Z,9.40
2022-11-26T15:20:49.589Z,9.30
2022-11-26T15:23:19.115Z,9.30
2022-11-26T15:25:52.107Z,9.30
2022-11-26T15:28:22.478Z,9.30
2022-11-26T15:30:59.646Z,9.30
2022-11-26T15:33:30.019Z,9.30
2022-11-26T15:35:58.215Z,9.20
2022-11-26T15:38:28.503Z,9.10
2022-11-26T15:41:00.763Z,9.10
2022-11-26T15:43:33.020Z,9.00
2022-11-26T15:46:04.301Z,8.90
2022-11-26T15:48:51.669Z,8.90
2022-11-26T15:51:30.727Z,8.90
2022-11-26T15:54:02.746Z,8.80
2022-11-26T15:56:38.184Z,8.70
2022-11-26T15:59:13.795Z,8.70
2022-11-26T16:01:46.185Z,8.70
2022-11-26T16:04:47.164Z,8.60
2022-11-26T16:07:17.395Z,8.60
2022-11-26T16:09:46.572Z,8.60
2022-11-26T16:12:30.014Z,8.50
2022-11-26T16:15:15.808Z,8.30
2022-11-26T16:17:44.363Z,8.30
2022-11-26T16:20:18.532Z,8.20
2022-11-26T16:22:49.520Z,8.20
2022-11-26T16:25:23.099Z,8.10
2022-11-26T16:28:07.689Z,8.10
2022-11-26T16:30:36.156Z,8.00
2022-11-26T16:33:04.849Z,8.00
2022-11-26T16:35:49.419Z,7.90
2022-11-26T16:38:20.161Z,7.90
2022-11-26T16:40:48.361Z,7.80
2022-11-26T16:43:17.901Z,7.80
2022-11-26T16:45:46.491Z,7.70
2022-11-26T16:48:23.090Z,7.80
2022-11-26T16:50:51.879Z,7.70
2022-11-26T16:53:19.917Z,7.70
2022-11-26T16:55:49.805Z,7.60
2022-11-26T16:58:29.624Z,7.60
2022-11-26T17:00:58.840Z,7.50
2022-11-26T17:03:32.913Z,7.40
2022-11-26T17:06:03.156Z,7.40
2022-11-26T17:08:32.168Z,7.40
2022-11-26T17:11:00.206Z,7.40
2022-11-26T17:13:31.032Z,7.40
2022-11-26T17:16:01.433Z,7.40
2022-11-26T17:18:29.555Z,7.30
2022-11-26T17:20:57.597Z,7.30
2022-11-26T17:23:25.818Z,7.20
2022-11-26T17:25:55.178Z,7.10
2022-11-26T17:28:23.256Z,7.00
2022-11-26T17:30:52.976Z,7.00
2022-11-26T17:33:21.012Z,6.90
2022-11-26T17:35:49.522Z,6.80
2022-11-26T17:38:20.296Z,6.80
2022-11-26T17:40:49.652Z,6.80
2022-11-26T17:43:18.012Z,6.80
2022-11-26T17:45:46.357Z,6.80
2022-11-26T17:48:15.862Z,6.80
2022-11-26T17:50:44.085Z,6.70
2022-11-26T17:53:12.411Z,6.70
2022-11-26T17:55:40.569Z,6.70
2022-11-26T17:58:10.940Z,6.80
2022-11-26T18:00:38.973Z,6.80
2022-11-26T18:03:07.533Z,6.80
2022-11-26T18:05:41.831Z,6.80
2022-11-26T18:08:10.388Z,6.80
2022-11-26T18:10:41.648Z,6.80
2022-11-26T18:13:09.735Z,6.80
2022-11-26T18:15:37.730Z,6.90
2022-11-26T18:18:08.544Z,6.90
2022-11-26T18:20:38.110Z,6.80
2022-11-26T18:23:06.188Z,6.80
2022-11-26T18:25:35.503Z,6.70
2022-11-26T18:28:03.875Z,6.80
2022-11-26T18:30:32.144Z,6.80
2022-11-26T18:33:02.356Z,6.80
2022-11-26T18:35:30.428Z,6.70
2022-11-26T18:38:00.036Z,6.60
2022-11-26T18:40:28.349Z,6.60
2022-11-26T18:42:56.344Z,6.50
2022-11-26T18:45:24.368Z,6.50
2022-11-26T18:47:52.803Z,6.50
2022-11-26T18:50:21.101Z,6.40
2022-11-26T18:52:49.131Z,6.30
2022-11-26T18:55:19.403Z,6.20
2022-11-26T18:57:47.487Z,6.30
2022-11-26T19:00:16.406Z,6.30
2022-11-26T19:02:44.754Z,6.20
2022-11-26T19:05:13.475Z,6.20
2022-11-26T19:07:41.707Z,6.20
2022-11-26T19:10:11.062Z,6.20
2022-11-26T19:12:40.524Z,6.20
2022-11-26T19:15:10.476Z,6.30
2022-11-26T19:17:40.763Z,6.20
2022-11-26T19:20:09.671Z,6.20
2022-11-26T19:22:37.978Z,6.10
2022-11-26T19:25:09.353Z,6.20
2022-11-26T19:27:37.418Z,6.10
2022-11-26T19:30:09.151Z,6.10
2022-11-26T19:32:37.279Z,6.00
2022-11-26T19:35:06.410Z,6.00
2022-11-26T19:37:34.614Z,6.00
2022-11-26T19:40:02.874Z,6.00
2022-11-26T19:42:32.734Z,6.00
2022-11-26T19:45:01.168Z,5.90
2022-11-26T19:47:30.797Z,6.00
2022-11-26T19:49:58.963Z,6.00
2022-11-26T19:52:27.086Z,6.00
2022-11-26T19:54:55.113Z,5.90
2022-11-26T19:57:24.797Z,6.00
2022-11-26T19:59:52.889Z,6.00
2022-11-26T20:02:21.223Z,6.00
2022-11-26T20:04:50.747Z,6.00
2022-11-26T20:07:19.008Z,6.00
2022-11-26T20:09:47.190Z,5.90
2022-11-26T20:12:15.552Z,5.90
2022-11-26T20:14:43.926Z,5.90
2022-11-26T20:17:12.949Z,5.90
2022-11-26T20:19:42.136Z,5.90
2022-11-26T20:22:13.149Z,5.80
2022-11-26T20:24:41.971Z,5.80
2022-11-26T20:27:10.365Z,5.80
2022-11-26T20:29:39.570Z,5.80
2022-11-26T20:32:08.049Z,5.70
2022-11-26T20:34:36.273Z,5.60
2022-11-26T20:37:04.338Z,5.60
2022-11-26T20:39:34.230Z,5.60
2022-11-26T20:42:02.609Z,5.70
2022-11-26T20:44:31.491Z,5.70
2022-11-26T20:46:59.964Z,5.70
2022-11-26T20:49:40.092Z,5.60
2022-11-26T20:52:10.775Z,5.60
2022-11-26T20:54:41.359Z,5.60
2022-11-26T20:57:09.502Z,5.60
2022-11-26T20:59:38.232Z,5.60
2022-11-26T21:02:06.825Z,5.70
2022-11-26T21:04:35.035Z,5.70
2022-11-26T21:07:03.248Z,5.60
2022-11-26T21:09:31.595Z,5.60
2022-11-26T21:12:01.456Z,5.70
2022-11-26T21:14:29.733Z,5.60
2022-11-26T21:16:57.810Z,5.70
2022-11-26T21:19:25.901Z,5.70
2022-11-26T21:21:53.932Z,5.70
2022-11-26T21:24:22.289Z,5.70
2022-11-26T21:26:50.369Z,5.70
2022-11-26T21:29:20.487Z,5.70
2022-11-26T21:31:48.556Z,5.70
2022-11-26T21:34:16.688Z,5.70
2022-11-26T21:36:44.715Z,5.60
2022-11-26T21:39:15.570Z,5.50
2022-11-26T21:41:43.635Z,5.50
2022-11-26T21:44:13.070Z,5.50
2022-11-26T21:46:45.294Z,5.50
2022-11-26T21:49:13.896Z,5.50
2022-11-26T21:51:42.450Z,5.50
2022-11-26T21:54:10.824Z,5.40
2022-11-26T21:56:39.062Z,5.40
2022-11-26T21:59:07.088Z,5.30
2022-11-26T22:01:36.667Z,5.30
2022-11-26T22:04:08.348Z,5.40
2022-11-26T22:06:37.054Z,5.30
2022-11-26T22:09:06.192Z,5.30
2022-11-26T22:11:36.523Z,5.30
2022-11-26T22:14:06.795Z,5.30
2022-11-26T22:16:35.709Z,5.20
2022-11-26T22:19:06.250Z,5.20
2022-11-26T22:21:36.550Z,5.30
2022-11-26T22:24:05.726Z,5.30
2022-11-26T22:26:34.447Z,5.20
2022-11-26T22:29:04.535Z,5.20
2022-11-26T22:31:34.033Z,5.20
2022-11-26T22:34:03.883Z,5.20
2022-11-26T22:36:34.377Z,5.20
2022-11-26T22:39:06.258Z,5.20
2022-11-26T22:41:34.363Z,5.10
2022-11-26T22:44:02.712Z,5.10
2022-11-26T22:46:30.843Z,5.10
2022-11-26T22:49:00.854Z,5.10
2022-11-26T22:51:31.127Z,5.10
2022-11-26T22:54:02.630Z,5.10
2022-11-26T22:56:31.381Z,5.10
2022-11-26T22:59:01.226Z,5.10
2022-11-26T23:01:30.987Z,5.10
2022-11-26T23:04:11.741Z,5.10
2022-11-26T23:06:40.363Z,5.00
2022-11-26T23:09:13.320Z,5.10
2022-11-26T23:11:43.351Z,5.00
2022-11-26T23:14:11.827Z,5.00
2022-11-26T23:16:42.535Z,5.00
2022-11-26T23:19:10.839Z,5.00
2022-11-26T23:21:41.699Z,5.00
2022-11-26T23:24:11.927Z,5.10
2022-11-26T23:26:41.693Z,5.00
2022-11-26T23:29:10.384Z,5.00
2022-11-26T23:31:40.400Z,5.00
2022-11-26T23:34:09.962Z,5.00
2022-11-26T23:36:38.468Z,4.90
2022-11-26T23:39:08.550Z,4.90
2022-11-26T23:41:38.088Z,5.00
2022-11-26T23:44:09.621Z,5.00
2022-11-26T23:46:37.806Z,4.90
2022-11-26T23:49:06.097Z,4.90
2022-11-26T23:51:34.967Z,4.90
2022-11-26T23:54:03.437Z,4.90
2022-11-26T23:56:33.446Z,4.90
2022-11-26T23:59:05.227Z,4.90
